Terminal Aerodrome Forecast
Issued by NWS

Home | Current Version | Previous Version | Text Only | Print | Product List | Glossary Off
Versions: 1 2 3 4 5 6 7 8 9 10 11 12 13 14 15

000
FTUS43 KICT 230537
TAFHUT
TAF
KHUT 230537Z 2306/2406 27008KT P6SM SCT070
     FM231500 33015G24KT P6SM BKN035 OVC050
     FM231800 34019G27KT P6SM BKN020 OVC040
     FM232200 34019G28KT P6SM VCSH OVC012=

USA.gov is the U.S. government's official web portal to all federal, state and local government web resources and services.